createdAt,value
2018-03-28T00:02:08.351Z,100483.63
2018-03-28T00:04:36.456Z,100486.27
2018-03-28T00:07:04.842Z,100488.83
2018-03-28T00:09:32.986Z,100492.47
2018-03-28T00:12:01.097Z,100490.30
2018-03-28T00:14:29.255Z,100483.31
2018-03-28T00:16:57.373Z,100480.46
2018-03-28T00:19:25.523Z,100485.98
2018-03-28T00:21:53.955Z,100489.91
2018-03-28T00:24:22.237Z,100486.29
2018-03-28T00:26:50.375Z,100484.94
2018-03-28T00:29:18.841Z,100487.61
2018-03-28T00:31:47.291Z,100485.68
2018-03-28T00:34:16.004Z,100490.28
2018-03-28T00:36:44.169Z,100487.97
2018-03-28T00:39:12.285Z,100492.90
2018-03-28T00:41:40.383Z,100489.03
2018-03-28T00:44:08.524Z,100487.13
2018-03-28T00:46:37.523Z,100481.56
2018-03-28T00:49:05.617Z,100474.08
2018-03-28T00:51:37.597Z,100474.82
2018-03-28T00:54:05.707Z,100475.96
2018-03-28T00:56:38.795Z,100486.16
2018-03-28T00:59:06.895Z,100493.03
2018-03-28T01:01:35.026Z,100489.39
2018-03-28T01:04:03.179Z,100492.17
2018-03-28T01:06:31.299Z,100495.19
2018-03-28T01:08:59.523Z,100497.98
2018-03-28T01:11:27.665Z,100501.08
2018-03-28T01:13:55.763Z,100498.12
2018-03-28T01:16:23.875Z,100499.98
2018-03-28T01:18:52.011Z,100498.22
2018-03-28T01:21:20.119Z,100496.83
2018-03-28T01:23:48.241Z,100495.55
2018-03-28T01:26:16.343Z,100498.15
2018-03-28T01:28:44.441Z,100495.86
2018-03-28T01:31:12.565Z,100499.30
2018-03-28T01:33:40.700Z,100496.70
2018-03-28T01:36:08.823Z,100489.78
2018-03-28T01:38:36.933Z,100486.14
2018-03-28T01:41:05.045Z,100483.70
2018-03-28T01:43:33.165Z,100478.20
2018-03-28T01:46:01.284Z,100479.89
2018-03-28T01:48:30.487Z,100486.01
2018-03-28T01:50:59.433Z,100480.53
2018-03-28T01:53:27.547Z,100472.42
2018-03-28T01:55:55.675Z,100475.28
2018-03-28T01:58:25.331Z,100476.11
2018-03-28T02:00:53.494Z,100476.00
2018-03-28T02:03:21.601Z,100482.84
2018-03-28T02:05:49.703Z,100479.61
2018-03-28T02:08:17.799Z,100477.34
2018-03-28T02:10:45.968Z,100474.16
2018-03-28T02:13:14.101Z,100474.22
2018-03-28T02:15:42.213Z,100477.08
2018-03-28T02:18:10.375Z,100470.33
2018-03-28T02:20:38.991Z,100463.18
2018-03-28T02:23:07.107Z,100466.80
2018-03-28T02:25:35.235Z,100457.48
2018-03-28T02:28:03.353Z,100460.63
2018-03-28T02:30:31.464Z,100468.70
2018-03-28T02:32:59.617Z,100481.78
2018-03-28T02:35:27.724Z,100480.22
2018-03-28T02:37:55.822Z,100479.67
2018-03-28T02:40:23.985Z,100479.92
2018-03-28T02:42:52.094Z,100478.58
2018-03-28T02:45:20.275Z,100475.91
2018-03-28T02:47:48.380Z,100469.62
2018-03-28T02:50:16.512Z,100464.75
2018-03-28T02:52:44.622Z,100464.22
2018-03-28T02:55:12.782Z,100469.15
2018-03-28T02:57:40.922Z,100461.44
2018-03-28T03:00:08.970Z,100472.61
2018-03-28T03:02:38.215Z,100469.20
2018-03-28T03:05:07.501Z,100471.82
2018-03-28T03:07:35.602Z,100475.03
2018-03-28T03:10:03.846Z,100473.16
2018-03-28T03:12:31.949Z,100479.52
2018-03-28T03:15:00.934Z,100475.73
2018-03-28T03:17:29.059Z,100476.38
2018-03-28T03:19:57.157Z,100471.99
2018-03-28T03:22:25.547Z,100473.53
2018-03-28T03:24:53.683Z,100478.39
2018-03-28T03:27:21.834Z,100472.74
2018-03-28T03:29:49.932Z,100481.77
2018-03-28T03:32:18.260Z,100482.51
2018-03-28T03:34:46.349Z,100481.97
2018-03-28T03:37:14.494Z,100484.20
2018-03-28T03:39:42.912Z,100482.80
2018-03-28T03:42:11.078Z,100481.31
2018-03-28T03:44:39.162Z,100477.47
2018-03-28T03:47:07.281Z,100477.30
2018-03-28T03:49:35.381Z,100479.17
2018-03-28T03:52:04.624Z,100478.83
2018-03-28T03:54:32.756Z,100487.01
2018-03-28T03:57:01.192Z,100488.75
2018-03-28T03:59:29.287Z,100486.16
2018-03-28T04:01:57.410Z,100488.14
2018-03-28T04:04:25.557Z,100479.23
2018-03-28T04:06:53.635Z,100481.05
2018-03-28T04:09:22.075Z,100474.14
2018-03-28T04:11:50.176Z,100468.30
2018-03-28T04:14:18.263Z,100461.56
2018-03-28T04:16:48.197Z,100457.02
2018-03-28T04:19:16.331Z,100464.42
2018-03-28T04:21:44.434Z,100468.69
2018-03-28T04:24:12.538Z,100469.23
2018-03-28T04:26:40.854Z,100466.68
2018-03-28T04:29:08.960Z,100478.94
2018-03-28T04:31:37.068Z,100485.30
2018-03-28T04:34:05.174Z,100479.72
2018-03-28T04:36:33.578Z,100473.00
2018-03-28T04:39:01.682Z,100475.05
2018-03-28T04:41:29.840Z,100478.83
2018-03-28T04:43:58.536Z,100471.01
2018-03-28T04:46:26.671Z,100460.49
2018-03-28T04:48:54.769Z,100467.06
2018-03-28T04:51:22.892Z,100468.56
2018-03-28T04:53:51.330Z,100467.73
2018-03-28T04:56:19.441Z,100466.46
2018-03-28T04:58:47.544Z,100461.13
2018-03-28T05:01:15.659Z,100450.45
2018-03-28T05:03:43.793Z,100449.36
2018-03-28T05:06:11.896Z,100450.86
2018-03-28T05:08:40.163Z,100448.82
2018-03-28T05:11:08.284Z,100455.30
2018-03-28T05:13:36.389Z,100449.78
2018-03-28T05:16:04.489Z,100440.92
2018-03-28T05:18:32.614Z,100442.62
2018-03-28T05:21:00.730Z,100430.44
2018-03-28T05:23:28.831Z,100440.69
2018-03-28T05:25:56.975Z,100443.28
2018-03-28T05:28:25.541Z,100434.08
2018-03-28T05:30:54.229Z,100437.16
2018-03-28T05:33:22.345Z,100439.15
2018-03-28T05:35:50.452Z,100438.48
2018-03-28T05:38:18.552Z,100444.19
2018-03-28T05:40:46.706Z,100428.48
2018-03-28T05:43:14.856Z,100437.81
2018-03-28T05:45:42.911Z,100436.98
2018-03-28T05:48:11.070Z,100441.88
2018-03-28T05:50:39.493Z,100445.09
2018-03-28T05:53:07.627Z,100443.51
2018-03-28T05:55:36.739Z,100442.17
2018-03-28T05:58:04.866Z,100434.34
2018-03-28T06:00:32.983Z,100433.39
2018-03-28T06:03:01.114Z,100426.66
2018-03-28T06:05:29.205Z,100427.80
2018-03-28T06:20:52.328Z,100408.73
2018-03-28T06:23:20.443Z,100405.89
2018-03-28T06:25:48.536Z,100394.55
2018-03-28T06:28:16.802Z,100394.56
2018-03-28T06:30:45.657Z,100393.92
2018-03-28T06:33:13.751Z,100388.73
2018-03-28T06:35:41.909Z,100385.02
2018-03-28T06:38:10.009Z,100380.30
2018-03-28T06:40:38.119Z,100373.13
2018-03-28T06:43:06.274Z,100372.50
2018-03-28T06:45:35.517Z,100364.23
2018-03-28T06:48:03.607Z,100358.73
2018-03-28T06:50:31.792Z,100360.92
2018-03-28T06:53:00.167Z,100363.06
2018-03-28T06:55:28.290Z,100366.28
2018-03-28T06:57:56.434Z,100369.22
2018-03-28T07:00:25.597Z,100369.78
2018-03-28T07:02:53.697Z,100361.22
2018-03-28T07:05:21.810Z,100357.51
2018-03-28T07:07:49.922Z,100352.72
2018-03-28T07:10:18.030Z,100351.03
2018-03-28T07:12:46.182Z,100351.67
2018-03-28T07:15:14.592Z,100353.91
2018-03-28T07:17:42.859Z,100356.83
2018-03-28T07:20:10.991Z,100357.30
2018-03-28T07:22:39.919Z,100359.91
2018-03-28T07:25:08.823Z,100367.23
2018-03-28T07:27:36.939Z,100361.99
2018-03-28T07:30:05.206Z,100357.28
2018-03-28T07:32:34.336Z,100348.41
2018-03-28T07:35:02.688Z,100353.62
2018-03-28T07:37:31.656Z,100357.76
2018-03-28T07:39:59.777Z,100358.05
2018-03-28T07:55:22.968Z,100344.81
2018-03-28T07:57:51.061Z,100334.99
2018-03-28T08:00:20.046Z,100339.76
2018-03-28T08:02:48.895Z,100342.42
2018-03-28T08:05:16.998Z,100342.48
2018-03-28T08:07:45.103Z,100334.41
2018-03-28T08:10:13.226Z,100332.89
2018-03-28T08:12:41.330Z,100334.59
2018-03-28T08:15:09.430Z,100329.39
2018-03-28T08:17:38.327Z,100335.75
2018-03-28T08:20:06.422Z,100335.95
2018-03-28T08:22:34.525Z,100323.77
2018-03-28T08:25:02.629Z,100323.75
2018-03-28T08:27:30.740Z,100327.27
2018-03-28T08:29:58.840Z,100324.39
2018-03-28T08:32:27.770Z,100322.36
2018-03-28T08:34:55.908Z,100319.34
2018-03-28T08:37:23.996Z,100316.74
2018-03-28T08:39:52.107Z,100321.14
2018-03-28T08:42:20.529Z,100324.00
2018-03-28T08:44:48.607Z,100328.00
2018-03-28T08:47:17.122Z,100326.07
2018-03-28T08:49:45.610Z,100329.64
2018-03-28T08:52:13.755Z,100321.09
2018-03-28T08:54:41.837Z,100322.84
2018-03-28T08:57:09.936Z,100322.56
2018-03-28T08:59:38.046Z,100314.16
2018-03-28T09:02:06.268Z,100308.45
2018-03-28T09:04:34.344Z,100307.92
2018-03-28T09:07:02.436Z,100303.98
2018-03-28T09:09:30.570Z,100301.09
2018-03-28T09:11:58.659Z,100293.98
2018-03-28T09:14:27.077Z,100296.90
2018-03-28T09:16:55.442Z,100290.11
2018-03-28T09:19:23.532Z,100282.80
2018-03-28T09:21:51.702Z,100283.80
2018-03-28T09:24:19.823Z,100276.70
2018-03-28T09:26:47.931Z,100275.51
2018-03-28T09:29:16.088Z,100275.98
2018-03-28T09:31:44.212Z,100279.86
2018-03-28T09:34:12.336Z,100271.24
2018-03-28T09:36:40.452Z,100278.63
2018-03-28T09:39:09.368Z,100280.94
2018-03-28T09:41:37.466Z,100279.86
2018-03-28T09:57:00.738Z,100253.19
2018-03-28T09:59:28.845Z,100246.89
2018-03-28T10:01:58.910Z,100243.44
2018-03-28T10:04:27.760Z,100245.53
2018-03-28T10:06:55.869Z,100242.47
2018-03-28T10:09:23.970Z,100240.99
2018-03-28T10:11:52.719Z,100242.81
2018-03-28T10:14:20.817Z,100236.52
2018-03-28T10:16:49.160Z,100230.81
2018-03-28T10:19:17.736Z,100226.45
2018-03-28T10:21:45.852Z,100224.91
2018-03-28T10:37:08.985Z,100193.96
2018-03-28T10:39:38.269Z,100180.95
2018-03-28T10:42:06.670Z,100176.41
2018-03-28T10:44:34.790Z,100170.55
2018-03-28T10:47:02.890Z,100171.08
2018-03-28T10:49:30.985Z,100154.54
2018-03-28T10:51:59.118Z,100152.45
2018-03-28T10:54:27.260Z,100149.35
2018-03-28T10:56:55.346Z,100147.41
2018-03-28T10:59:23.730Z,100137.02
2018-03-28T11:01:52.600Z,100129.84
2018-03-28T11:04:20.711Z,100130.52
2018-03-28T11:06:48.809Z,100114.78
2018-03-28T11:09:16.983Z,100114.09
2018-03-28T11:11:45.682Z,100103.61
2018-03-28T11:14:13.787Z,100103.05
2018-03-28T11:16:41.896Z,100094.86
2018-03-28T11:19:10.014Z,100087.09
2018-03-28T11:21:38.415Z,100088.11
2018-03-28T11:24:06.534Z,100080.13
2018-03-28T11:26:34.655Z,100064.14
2018-03-28T11:29:02.746Z,100064.48
2018-03-28T11:31:30.921Z,100062.11
2018-03-28T11:33:58.994Z,100058.38
2018-03-28T11:36:27.463Z,100054.88
2018-03-28T11:38:55.630Z,100050.52
2018-03-28T11:41:23.781Z,100050.09
2018-03-28T11:43:51.822Z,100049.48
2018-03-28T11:46:19.941Z,100051.14
2018-03-28T11:48:48.048Z,100042.92
2018-03-28T11:51:17.086Z,100034.51
2018-03-28T11:53:51.013Z,100034.45
2018-03-28T11:56:19.173Z,100024.82
2018-03-28T11:58:47.282Z,100023.19
2018-03-28T12:01:15.395Z,100012.38
2018-03-28T12:03:44.342Z,100000.55
2018-03-28T12:06:13.188Z,99999.80
2018-03-28T12:08:41.309Z,99994.63
2018-03-28T12:11:09.402Z,99990.57
2018-03-28T12:13:38.208Z,99982.22
2018-03-28T12:16:06.284Z,99984.44
2018-03-28T12:18:34.375Z,99979.83
2018-03-28T12:21:03.162Z,99972.03
2018-03-28T12:23:31.760Z,99969.23
2018-03-28T12:25:59.867Z,99964.23
2018-03-28T12:28:28.763Z,99967.25
2018-03-28T12:30:56.855Z,99957.30
2018-03-28T12:33:24.945Z,99957.43
2018-03-28T12:35:53.047Z,99949.05
2018-03-28T12:38:21.128Z,99946.67
2018-03-28T12:40:49.227Z,99941.02
2018-03-28T12:43:18.560Z,99948.81
2018-03-28T12:45:46.698Z,99945.03
2018-03-28T12:48:14.793Z,99945.94
2018-03-28T12:50:42.900Z,99945.35
2018-03-28T12:53:12.000Z,99941.45
2018-03-28T12:55:40.292Z,99945.38
2018-03-28T12:58:10.386Z,99940.95
2018-03-28T13:00:38.478Z,99934.99
2018-03-28T13:03:07.708Z,99927.74
2018-03-28T13:05:35.787Z,99923.69
2018-03-28T13:08:04.944Z,99918.41
2018-03-28T13:10:33.003Z,99915.79
2018-03-28T13:13:01.086Z,99904.42
2018-03-28T13:15:29.249Z,99904.23
2018-03-28T13:17:58.155Z,99897.91
2018-03-28T13:20:26.588Z,99892.44
2018-03-28T13:22:54.693Z,99883.29
2018-03-28T13:25:23.547Z,99876.02
2018-03-28T13:27:51.694Z,99878.17
2018-03-28T13:30:19.818Z,99873.61
2018-03-28T13:32:47.969Z,99866.45
2018-03-28T13:35:16.043Z,99853.91
2018-03-28T13:37:44.617Z,99845.41
2018-03-28T13:40:12.748Z,99839.14
2018-03-28T13:42:41.591Z,99830.88
2018-03-28T13:45:09.906Z,99824.05
2018-03-28T13:47:37.983Z,99823.91
2018-03-28T13:50:06.072Z,99821.45
2018-03-28T13:52:34.204Z,99815.70
2018-03-28T13:55:02.303Z,99815.21
2018-03-28T13:57:30.412Z,99819.69
2018-03-28T13:59:58.587Z,99808.89
2018-03-28T14:02:27.166Z,99812.75
2018-03-28T14:04:55.238Z,99811.79
2018-03-28T14:07:23.335Z,99808.61
2018-03-28T14:09:52.323Z,99807.64
2018-03-28T14:12:20.407Z,99806.80
2018-03-28T14:14:48.543Z,99799.75
2018-03-28T14:17:17.060Z,99801.31
2018-03-28T14:19:45.086Z,99792.75
2018-03-28T14:22:13.196Z,99786.08
2018-03-28T14:24:42.101Z,99784.75
2018-03-28T14:27:10.195Z,99785.35
2018-03-28T14:29:38.308Z,99793.34
2018-03-28T14:32:06.385Z,99781.08
2018-03-28T14:34:35.488Z,99778.71
2018-03-28T14:37:03.952Z,99766.61
2018-03-28T14:39:34.237Z,99755.53
2018-03-28T14:42:02.340Z,99750.60
2018-03-28T14:44:30.454Z,99749.95
2018-03-28T14:46:59.139Z,99740.37
2018-03-28T14:49:27.252Z,99742.19
2018-03-28T14:51:55.436Z,99743.95
2018-03-28T14:54:23.913Z,99735.94
2018-03-28T14:56:52.014Z,99732.28
2018-03-28T14:59:20.147Z,99733.94
2018-03-28T15:01:48.231Z,99738.30
2018-03-28T15:04:16.603Z,99739.88
2018-03-28T15:06:44.679Z,99742.05
2018-03-28T15:09:12.760Z,99754.44
2018-03-28T15:11:40.975Z,99742.41
2018-03-28T15:14:09.071Z,99749.26
2018-03-28T15:16:37.177Z,99742.17
2018-03-28T15:19:05.495Z,99742.59
2018-03-28T15:21:34.597Z,99733.44
2018-03-28T15:24:02.678Z,99724.59
2018-03-28T15:26:31.401Z,99717.69
2018-03-28T15:29:00.070Z,99724.43
2018-03-28T15:31:28.146Z,99728.55
2018-03-28T15:33:56.254Z,99736.27
2018-03-28T15:36:24.336Z,99732.68
2018-03-28T15:38:52.424Z,99734.16
2018-03-28T15:41:20.523Z,99730.99
2018-03-28T15:43:48.619Z,99729.26
2018-03-28T15:46:16.717Z,99730.03
2018-03-28T15:48:44.842Z,99732.47
2018-03-28T15:51:13.185Z,99720.77
2018-03-28T15:53:41.272Z,99720.77
2018-03-28T15:56:09.364Z,99724.36
2018-03-28T15:58:37.447Z,99737.25
2018-03-28T16:01:05.547Z,99733.59
2018-03-28T16:03:33.643Z,99739.25
2018-03-28T16:06:01.830Z,99749.14
2018-03-28T16:08:29.914Z,99761.69
2018-03-28T16:10:58.756Z,99764.76
2018-03-28T16:13:26.899Z,99762.59
2018-03-28T16:15:54.979Z,99767.74
2018-03-28T16:18:23.109Z,99771.19
2018-03-28T16:20:51.490Z,99773.17
2018-03-28T16:23:19.632Z,99780.63
2018-03-28T16:25:47.720Z,99793.00
2018-03-28T16:28:15.809Z,99800.56
2018-03-28T16:30:44.959Z,99804.22
2018-03-28T16:33:13.059Z,99804.22
2018-03-28T16:35:41.134Z,99804.42
2018-03-28T16:38:09.289Z,99816.11
2018-03-28T16:40:37.384Z,99820.75
2018-03-28T16:43:05.455Z,99826.13
2018-03-28T16:45:33.633Z,99826.93
2018-03-28T16:48:02.495Z,99831.88
2018-03-28T16:50:30.593Z,99835.11
2018-03-28T16:53:00.026Z,99843.98
2018-03-28T16:55:28.111Z,99848.62
2018-03-28T16:57:56.193Z,99853.36
2018-03-28T17:00:24.299Z,99866.66
2018-03-28T17:02:52.386Z,99859.04
2018-03-28T17:05:20.457Z,99855.87
2018-03-28T17:07:48.598Z,99874.95
2018-03-28T17:10:16.658Z,99874.31
2018-03-28T17:12:44.718Z,99884.29
2018-03-28T17:15:12.809Z,99895.71
2018-03-28T17:17:40.900Z,99900.38
2018-03-28T17:20:08.981Z,99904.95
2018-03-28T17:22:37.073Z,99915.34
2018-03-28T17:37:56.084Z,99951.85
2018-03-28T17:40:24.488Z,99958.19
2018-03-28T17:42:52.554Z,99955.80
2018-03-28T17:45:20.668Z,99964.36
2018-03-28T17:47:48.754Z,99965.77
2018-03-28T17:50:16.842Z,99977.75
2018-03-28T17:52:44.937Z,99982.98
2018-03-28T17:55:13.957Z,99964.15
2018-03-28T17:57:42.048Z,99979.79
2018-03-28T18:00:10.150Z,99988.70
2018-03-28T18:02:39.223Z,99991.41
2018-03-28T18:05:07.338Z,99995.44
2018-03-28T18:07:35.836Z,99993.55
2018-03-28T18:10:03.909Z,100001.72
2018-03-28T18:12:32.027Z,100008.00
2018-03-28T18:15:00.179Z,100008.38
2018-03-28T18:17:28.303Z,100019.44
2018-03-28T18:19:59.160Z,100029.33
2018-03-28T18:22:28.875Z,100035.48
2018-03-28T18:24:56.994Z,100036.87
2018-03-28T18:27:25.362Z,100043.54
2018-03-28T18:29:53.451Z,100051.61
2018-03-28T18:32:21.671Z,100058.88
2018-03-28T18:34:49.771Z,100073.28
2018-03-28T18:37:18.816Z,100079.39
2018-03-28T18:39:46.906Z,100082.72
2018-03-28T18:42:15.007Z,100087.05
2018-03-28T18:44:43.107Z,100081.20
2018-03-28T18:47:11.265Z,100079.56
2018-03-28T18:49:39.346Z,100087.12
2018-03-28T18:52:07.819Z,100084.34
2018-03-28T18:54:35.914Z,100085.38
2018-03-28T18:57:04.026Z,100092.33
2018-03-28T18:59:33.012Z,100091.85
2018-03-28T19:02:01.110Z,100091.00
2018-03-28T19:04:29.206Z,100095.12
2018-03-28T19:06:57.508Z,100103.39
2018-03-28T19:09:25.597Z,100097.13
2018-03-28T19:11:53.670Z,100113.55
2018-03-28T19:14:21.779Z,100122.09
2018-03-28T19:16:49.869Z,100128.62
2018-03-28T19:19:17.968Z,100131.47
2018-03-28T19:21:46.376Z,100137.52
2018-03-28T19:24:14.486Z,100136.17
2018-03-28T19:26:42.580Z,100145.92
2018-03-28T19:29:10.713Z,100143.67
2018-03-28T19:31:39.011Z,100151.17
2018-03-28T19:34:07.082Z,100147.55
2018-03-28T19:36:35.534Z,100154.42
2018-03-28T19:39:03.623Z,100163.22
2018-03-28T19:41:32.187Z,100162.48
2018-03-28T19:44:01.163Z,100172.66
2018-03-28T19:46:29.353Z,100170.59
2018-03-28T20:05:02.930Z,100189.19
2018-03-28T20:17:11.022Z,100198.08
2018-03-28T20:19:39.113Z,100205.00
2018-03-28T20:22:07.195Z,100202.86
2018-03-28T20:24:35.312Z,100211.02
2018-03-28T20:27:03.412Z,100205.55
2018-03-28T20:29:31.485Z,100208.35
2018-03-28T20:31:59.604Z,100222.75
2018-03-28T20:34:28.162Z,100217.39
2018-03-28T20:36:57.013Z,100228.94
2018-03-28T20:39:26.010Z,100223.67
2018-03-28T20:41:54.251Z,100230.69
2018-03-28T20:44:22.448Z,100234.83
2018-03-28T20:46:50.555Z,100239.88
2018-03-28T20:49:18.695Z,100233.41
2018-03-28T20:51:46.794Z,100241.58
2018-03-28T21:03:54.899Z,100246.93
2018-03-28T21:06:23.478Z,100259.53
2018-03-28T21:08:51.558Z,100257.78
2018-03-28T21:11:19.685Z,100251.52
2018-03-28T21:13:47.766Z,100258.91
2018-03-28T21:16:15.864Z,100256.47
2018-03-28T21:18:44.604Z,100261.61
2018-03-28T21:21:12.774Z,100259.34
2018-03-28T21:23:41.028Z,100267.25
2018-03-28T21:26:09.944Z,100272.16
2018-03-28T21:41:28.237Z,100273.05
2018-03-28T21:43:56.319Z,100273.09
2018-03-28T21:46:24.445Z,100285.86
2018-03-28T21:48:52.586Z,100284.69
2018-03-28T21:51:20.671Z,100293.64
2018-03-28T21:53:48.918Z,100282.40
2018-03-28T21:56:17.284Z,100291.34
2018-03-28T21:58:45.446Z,100288.58
2018-03-28T22:01:13.571Z,100286.45
2018-03-28T22:03:41.697Z,100291.44
2018-03-28T22:06:09.787Z,100287.55
2018-03-28T22:08:38.019Z,100285.48
2018-03-28T22:11:06.115Z,100291.97
2018-03-28T22:13:34.231Z,100288.03
2018-03-28T22:16:02.330Z,100299.89
2018-03-28T22:18:30.418Z,100305.75
2018-03-28T22:20:58.510Z,100304.00
2018-03-28T22:36:21.657Z,100329.39
2018-03-28T22:38:49.752Z,100332.35
2018-03-28T22:41:17.918Z,100331.06
2018-03-28T22:43:46.014Z,100338.58
2018-03-28T22:46:14.426Z,100338.47
2018-03-28T22:48:42.524Z,100337.41
2018-03-28T22:51:11.383Z,100339.09
2018-03-28T22:53:39.466Z,100347.03
2018-03-28T22:56:07.926Z,100346.92
2018-03-28T22:58:36.056Z,100345.48
2018-03-28T23:01:04.146Z,100339.84
2018-03-28T23:03:32.225Z,100344.58
2018-03-28T23:06:00.414Z,100342.89
2018-03-28T23:08:28.764Z,100345.39
2018-03-28T23:10:56.864Z,100344.58
2018-03-28T23:13:24.951Z,100343.02
2018-03-28T23:28:44.055Z,100351.39
2018-03-28T23:31:12.143Z,100346.97
2018-03-28T23:33:40.231Z,100340.27
2018-03-28T23:36:08.352Z,100348.24
2018-03-28T23:38:36.461Z,100344.52
2018-03-28T23:41:04.904Z,100348.73
2018-03-28T23:43:33.011Z,100347.03
2018-03-28T23:46:07.112Z,100338.87
2018-03-28T23:48:35.626Z,100343.67
2018-03-28T23:51:03.762Z,100345.11
2018-03-28T23:53:31.899Z,100349.84
2018-03-28T23:56:00.077Z,100349.25
2018-03-28T23:58:28.214Z,100346.84
